createdAt,value
2022-12-11T00:02:15.701Z,7.28
2022-12-11T00:04:44.664Z,9.18
2022-12-11T00:07:12.972Z,7.25
2022-12-11T00:09:42.194Z,8.20
2022-12-11T00:12:10.235Z,5.88
2022-12-11T00:14:38.538Z,6.50
2022-12-11T00:17:06.825Z,5.82
2022-12-11T00:19:35.183Z,9.32
2022-12-11T00:22:03.084Z,8.93
2022-12-11T00:24:31.075Z,7.45
2022-12-11T00:26:59.005Z,5.60
2022-12-11T00:29:27.048Z,9.27
2022-12-11T00:31:54.885Z,9.05
2022-12-11T00:34:23.223Z,5.53
2022-12-11T00:36:51.304Z,6.82
2022-12-11T00:39:19.432Z,8.95
2022-12-11T00:41:48.573Z,11.00
2022-12-11T00:44:17.545Z,12.02
2022-12-11T00:46:45.571Z,6.87
2022-12-11T00:49:13.755Z,9.25
2022-12-11T00:51:41.819Z,7.93
2022-12-11T00:54:09.956Z,5.72
2022-12-11T00:56:38.922Z,7.22
2022-12-11T00:59:07.354Z,6.43
2022-12-11T01:01:35.453Z,9.98
2022-12-11T01:04:04.226Z,5.70
2022-12-11T01:06:32.112Z,8.88
2022-12-11T01:09:18.675Z,12.13
2022-12-11T01:11:47.443Z,8.40
2022-12-11T01:14:15.464Z,8.38
2022-12-11T01:16:43.986Z,7.72
2022-12-11T01:19:11.991Z,9.02
2022-12-11T01:21:40.243Z,7.85
2022-12-11T01:24:08.434Z,9.83
2022-12-11T01:26:36.529Z,10.65
2022-12-11T01:29:04.929Z,11.32
2022-12-11T01:31:33.442Z,7.82
2022-12-11T01:34:01.558Z,7.07
2022-12-11T01:36:30.426Z,7.37
2022-12-11T01:38:59.009Z,6.85
2022-12-11T01:41:27.008Z,9.18
2022-12-11T01:44:02.032Z,9.95
2022-12-11T01:46:33.063Z,9.75
2022-12-11T01:49:05.146Z,7.63
2022-12-11T01:51:36.936Z,3.88
2022-12-11T01:54:09.630Z,6.82
2022-12-11T01:56:40.204Z,5.47
2022-12-11T01:59:09.940Z,7.10
2022-12-11T02:01:55.927Z,5.77
2022-12-11T02:04:25.369Z,7.75
2022-12-11T02:06:54.795Z,5.55
2022-12-11T02:09:30.167Z,7.38
2022-12-11T02:12:20.802Z,6.35
2022-12-11T02:15:29.695Z,7.67
2022-12-11T02:18:07.621Z,8.38
2022-12-11T02:20:38.916Z,4.95
2022-12-11T02:23:26.811Z,7.28
2022-12-11T02:26:12.915Z,4.57
2022-12-11T02:28:50.159Z,8.53
2022-12-11T02:31:28.526Z,6.18
2022-12-11T02:34:14.315Z,6.20
2022-12-11T02:36:46.472Z,4.45
2022-12-11T02:39:17.243Z,6.07
2022-12-11T02:41:51.086Z,4.87
2022-12-11T02:44:24.973Z,5.05
2022-12-11T02:46:54.207Z,5.03
2022-12-11T02:49:24.265Z,6.38
2022-12-11T02:51:53.897Z,6.45
2022-12-11T02:54:32.515Z,6.87
2022-12-11T02:57:10.139Z,5.72
2022-12-11T02:59:42.176Z,6.15
2022-12-11T03:02:13.364Z,6.90
2022-12-11T03:04:42.780Z,6.82
2022-12-11T03:07:19.611Z,9.53
2022-12-11T03:09:49.753Z,6.55
2022-12-11T03:12:28.150Z,6.63
2022-12-11T03:14:57.274Z,4.47
2022-12-11T03:17:35.057Z,3.92
2022-12-11T03:20:08.541Z,6.17
2022-12-11T03:23:05.630Z,4.88
2022-12-11T03:25:52.002Z,9.60
2022-12-11T03:28:30.816Z,4.85
2022-12-11T03:31:08.975Z,7.63
2022-12-11T03:33:40.814Z,5.40
2022-12-11T03:36:18.224Z,6.55
2022-12-11T03:39:00.092Z,5.85
2022-12-11T03:41:31.984Z,5.18
2022-12-11T03:44:00.431Z,6.25
2022-12-11T03:46:35.954Z,6.60
2022-12-11T03:49:11.650Z,5.57
2022-12-11T03:51:41.412Z,5.00
2022-12-11T03:54:11.454Z,5.43
2022-12-11T03:56:41.928Z,7.88
2022-12-11T03:59:10.939Z,11.00
2022-12-11T04:01:39.082Z,6.82
2022-12-11T04:04:07.657Z,9.43
2022-12-11T04:06:36.058Z,6.90
2022-12-11T04:09:04.693Z,5.85
2022-12-11T04:11:35.674Z,5.33
2022-12-11T04:14:28.284Z,4.90
2022-12-11T04:16:56.683Z,6.60
2022-12-11T04:19:44.242Z,3.80
2022-12-11T04:22:33.376Z,4.53
2022-12-11T04:25:03.306Z,7.80
2022-12-11T04:27:49.975Z,5.60
2022-12-11T04:30:23.358Z,7.57
2022-12-11T04:32:54.141Z,5.47
2022-12-11T04:35:22.758Z,8.15
2022-12-11T04:37:51.312Z,7.23
2022-12-11T04:40:20.803Z,10.23
2022-12-11T04:42:48.862Z,8.60
2022-12-11T04:45:17.485Z,10.18
2022-12-11T04:47:45.476Z,7.47
2022-12-11T04:50:15.602Z,7.77
2022-12-11T04:52:45.692Z,11.57
2022-12-11T04:55:14.522Z,10.07
2022-12-11T04:57:42.961Z,4.93
2022-12-11T05:00:13.756Z,9.82
2022-12-11T05:02:42.656Z,11.23
2022-12-11T05:05:11.487Z,5.32
2022-12-11T05:07:40.231Z,6.57
2022-12-11T05:10:09.879Z,9.35
2022-12-11T05:12:38.171Z,3.63
2022-12-11T05:15:06.954Z,7.83
2022-12-11T05:17:35.039Z,4.93
2022-12-11T05:20:03.339Z,5.60
2022-12-11T05:22:32.505Z,7.30
2022-12-11T05:25:01.076Z,10.70
2022-12-11T05:27:29.241Z,10.50
2022-12-11T05:29:59.604Z,10.30
2022-12-11T05:32:27.938Z,11.55
2022-12-11T05:34:56.574Z,12.40
2022-12-11T05:37:25.160Z,7.82
2022-12-11T05:39:53.098Z,13.10
2022-12-11T05:42:27.002Z,11.95
2022-12-11T05:44:57.265Z,9.88
2022-12-11T05:47:25.957Z,14.70
2022-12-11T05:49:54.011Z,10.70
2022-12-11T05:52:22.070Z,14.77
2022-12-11T05:54:50.924Z,9.52
2022-12-11T05:57:18.708Z,11.57
2022-12-11T05:59:46.754Z,15.95
2022-12-11T06:02:14.808Z,12.77
2022-12-11T06:04:42.981Z,14.03
2022-12-11T06:07:11.413Z,9.75
2022-12-11T06:09:39.804Z,9.90
2022-12-11T06:12:08.327Z,10.05
2022-12-11T06:14:36.597Z,10.07
2022-12-11T06:17:04.829Z,7.30
2022-12-11T06:19:36.773Z,10.70
2022-12-11T06:22:05.627Z,8.90
2022-12-11T06:24:33.957Z,16.88
2022-12-11T06:27:01.939Z,11.75
2022-12-11T06:29:29.887Z,10.97
2022-12-11T06:31:58.099Z,13.35
2022-12-11T06:34:26.097Z,12.63
2022-12-11T06:36:54.296Z,12.00
2022-12-11T06:39:22.571Z,11.93
2022-12-11T06:41:50.625Z,10.57
2022-12-11T06:44:18.554Z,15.77
2022-12-11T06:46:46.998Z,14.10
2022-12-11T06:49:14.760Z,13.02
2022-12-11T06:51:45.699Z,8.55
2022-12-11T06:54:13.732Z,14.97
2022-12-11T06:56:44.444Z,10.82
2022-12-11T06:59:13.907Z,11.13
2022-12-11T07:01:41.764Z,10.95
2022-12-11T07:04:10.222Z,16.65
2022-12-11T07:06:38.119Z,12.50
2022-12-11T07:09:07.101Z,12.40
2022-12-11T07:11:39.347Z,14.23
2022-12-11T07:14:07.354Z,12.32
2022-12-11T07:16:35.507Z,12.60
2022-12-11T07:19:03.625Z,13.30
2022-12-11T07:21:31.612Z,11.25
2022-12-11T07:23:59.972Z,15.60
2022-12-11T07:26:29.224Z,14.88
2022-12-11T07:28:59.290Z,13.38
2022-12-11T07:31:31.318Z,10.63
2022-12-11T07:34:06.221Z,13.73
2022-12-11T07:36:35.327Z,11.93
2022-12-11T07:39:03.917Z,9.52
2022-12-11T07:41:32.257Z,14.13
2022-12-11T07:44:01.741Z,16.33
2022-12-11T07:46:33.022Z,13.60
2022-12-11T07:49:01.832Z,14.75
2022-12-11T07:51:32.448Z,14.82
2022-12-11T07:54:03.302Z,13.40
2022-12-11T07:56:32.053Z,12.87
2022-12-11T07:59:01.489Z,12.55
2022-12-11T08:01:31.976Z,11.50
2022-12-11T08:03:59.988Z,13.35
2022-12-11T08:06:33.971Z,16.65
2022-12-11T08:09:04.109Z,15.03
2022-12-11T08:11:33.317Z,12.65
2022-12-11T08:14:01.476Z,11.63
2022-12-11T08:16:29.931Z,13.93
2022-12-11T08:18:58.872Z,12.65
2022-12-11T08:21:28.914Z,10.63
2022-12-11T08:23:57.195Z,10.82
2022-12-11T08:26:29.243Z,15.07
2022-12-11T08:28:57.931Z,13.65
2022-12-11T08:31:26.714Z,13.27
2022-12-11T08:33:57.030Z,11.00
2022-12-11T08:36:25.462Z,12.02
2022-12-11T08:38:58.264Z,12.02
2022-12-11T08:41:31.204Z,11.02
2022-12-11T08:44:01.001Z,15.02
2022-12-11T08:46:32.272Z,15.30
2022-12-11T08:49:00.932Z,11.13
2022-12-11T08:51:30.273Z,13.07
2022-12-11T08:54:01.567Z,13.15
2022-12-11T08:56:30.224Z,12.45
2022-12-11T08:59:01.248Z,15.30
2022-12-11T09:01:30.294Z,13.45
2022-12-11T09:03:58.601Z,10.38
2022-12-11T09:06:30.674Z,13.27
2022-12-11T09:09:00.809Z,14.40
2022-12-11T09:11:32.704Z,13.47
2022-12-11T09:14:06.852Z,12.32
2022-12-11T09:16:40.990Z,13.48
2022-12-11T09:19:14.485Z,9.82
2022-12-11T09:21:44.018Z,11.23
2022-12-11T09:24:13.183Z,10.83
2022-12-11T09:26:42.571Z,11.77
2022-12-11T09:29:12.865Z,12.85
2022-12-11T09:31:41.503Z,11.23
2022-12-11T09:34:12.478Z,11.30
2022-12-11T09:36:41.907Z,10.80
2022-12-11T09:39:11.713Z,14.50
2022-12-11T09:41:49.196Z,10.65
2022-12-11T09:44:23.304Z,19.80
2022-12-11T09:46:52.362Z,11.55
2022-12-11T09:49:32.077Z,12.60
2022-12-11T09:52:20.998Z,12.15
2022-12-11T09:54:53.389Z,12.07
2022-12-11T09:57:33.162Z,10.80
2022-12-11T10:00:27.415Z,10.57
2022-12-11T10:03:14.350Z,11.67
2022-12-11T10:06:02.664Z,9.43
2022-12-11T10:09:00.568Z,13.45
2022-12-11T10:11:39.526Z,10.45
2022-12-11T10:14:30.067Z,14.05
2022-12-11T10:17:17.744Z,11.17
2022-12-11T10:19:48.107Z,10.18
2022-12-11T10:22:26.561Z,9.52
2022-12-11T10:25:11.308Z,12.40
2022-12-11T10:27:41.565Z,6.85
2022-12-11T10:30:16.370Z,8.57
2022-12-11T10:32:55.031Z,13.15
2022-12-11T10:35:56.947Z,5.65
2022-12-11T10:38:28.111Z,5.38
2022-12-11T10:41:05.300Z,8.48
2022-12-11T10:43:42.718Z,4.70
2022-12-11T10:46:18.283Z,6.45
2022-12-11T10:48:55.814Z,5.07
2022-12-11T10:51:34.583Z,4.35
2022-12-11T10:54:35.897Z,6.75
2022-12-11T10:57:05.958Z,11.67
2022-12-11T10:59:41.553Z,5.57
2022-12-11T11:02:23.735Z,6.25
2022-12-11T11:04:52.659Z,8.63
2022-12-11T11:07:27.003Z,8.43
2022-12-11T11:10:14.038Z,4.87
2022-12-11T11:12:50.789Z,8.73
2022-12-11T11:15:28.312Z,5.90
2022-12-11T11:18:18.297Z,6.88
2022-12-11T11:20:49.157Z,4.78
2022-12-11T11:23:19.388Z,6.60
2022-12-11T11:25:56.562Z,7.13
2022-12-11T11:28:36.127Z,6.05
2022-12-11T11:31:14.207Z,5.57
2022-12-11T11:33:57.341Z,5.10
2022-12-11T11:36:28.812Z,5.83
2022-12-11T11:39:18.943Z,4.00
2022-12-11T11:42:13.778Z,4.88
2022-12-11T11:45:00.770Z,4.75
2022-12-11T11:47:35.032Z,4.75
2022-12-11T11:50:16.848Z,6.53
2022-12-11T11:53:18.515Z,7.60
2022-12-11T11:56:27.823Z,4.93
2022-12-11T11:59:15.896Z,4.63
2022-12-11T12:01:44.674Z,7.68
2022-12-11T12:04:12.951Z,3.60
2022-12-11T12:06:51.022Z,6.13
2022-12-11T12:09:40.960Z,4.43
2022-12-11T12:12:32.402Z,4.90
2022-12-11T12:15:20.911Z,4.35
2022-12-11T12:18:13.595Z,4.67
2022-12-11T12:20:52.497Z,5.22
2022-12-11T12:23:23.293Z,3.42
2022-12-11T12:26:04.564Z,6.05
2022-12-11T12:28:41.371Z,5.55
2022-12-11T12:31:21.903Z,7.50
2022-12-11T12:34:07.339Z,10.93
2022-12-11T12:36:54.752Z,6.07
2022-12-11T12:39:44.086Z,4.68
2022-12-11T12:42:48.560Z,5.55
2022-12-11T12:45:16.629Z,4.90
2022-12-11T12:47:53.228Z,7.25
2022-12-11T12:50:25.707Z,5.18
2022-12-11T12:52:55.872Z,5.43
2022-12-11T12:55:27.646Z,4.35
2022-12-11T12:58:01.714Z,5.10
2022-12-11T13:00:39.357Z,3.97
2022-12-11T13:03:23.217Z,8.23
2022-12-11T13:05:59.352Z,4.60
2022-12-11T13:08:53.357Z,6.43
2022-12-11T13:11:31.818Z,4.10
2022-12-11T13:14:06.935Z,9.05
2022-12-11T13:16:44.637Z,4.78
2022-12-11T13:19:27.520Z,4.82
2022-12-11T13:22:03.512Z,4.65
2022-12-11T13:24:47.379Z,4.93
2022-12-11T13:27:37.075Z,4.90
2022-12-11T13:30:20.387Z,5.18
2022-12-11T13:33:06.983Z,5.07
2022-12-11T13:35:39.643Z,4.80
2022-12-11T13:38:30.252Z,3.93
2022-12-11T13:41:00.575Z,4.40
2022-12-11T13:43:32.121Z,3.75
2022-12-11T13:46:06.373Z,4.95
2022-12-11T13:48:37.229Z,4.85
2022-12-11T13:51:06.793Z,5.57
2022-12-11T13:53:34.906Z,6.10
2022-12-11T13:56:16.803Z,4.75
2022-12-11T13:58:45.437Z,4.53
2022-12-11T14:01:29.802Z,5.00
2022-12-11T14:03:59.921Z,5.57
2022-12-11T14:06:29.310Z,6.07
2022-12-11T14:09:00.768Z,3.53
2022-12-11T14:11:34.994Z,6.78
2022-12-11T14:14:07.218Z,5.38
2022-12-11T14:16:35.660Z,4.30
2022-12-11T14:19:07.899Z,2.88
2022-12-11T14:21:36.625Z,5.13
2022-12-11T14:24:07.029Z,4.03
2022-12-11T14:26:40.024Z,5.40
2022-12-11T14:29:08.319Z,8.23
2022-12-11T14:31:44.285Z,3.80
2022-12-11T14:34:31.119Z,6.32
2022-12-11T14:37:01.446Z,3.85
2022-12-11T14:39:41.204Z,6.13
2022-12-11T14:42:18.916Z,4.90
2022-12-11T14:45:03.613Z,4.13
2022-12-11T14:47:42.810Z,4.95
2022-12-11T14:50:22.572Z,4.95
2022-12-11T14:53:03.579Z,4.60
2022-12-11T14:55:35.277Z,6.80
2022-12-11T14:58:25.534Z,3.05
2022-12-11T15:01:21.289Z,4.18
2022-12-11T15:03:49.621Z,5.00
2022-12-11T15:06:31.935Z,5.03
2022-12-11T15:09:18.692Z,7.63
2022-12-11T15:11:49.398Z,5.13
2022-12-11T15:14:20.762Z,7.68
2022-12-11T15:16:51.263Z,7.03
2022-12-11T15:19:28.941Z,3.47
2022-12-11T15:22:06.270Z,6.30
2022-12-11T15:24:41.183Z,4.53
2022-12-11T15:27:35.905Z,4.78
2022-12-11T15:30:27.415Z,3.08
2022-12-11T15:33:16.754Z,5.30
2022-12-11T15:36:02.312Z,4.90
2022-12-11T15:38:41.324Z,5.30
2022-12-11T15:41:26.650Z,4.30
2022-12-11T15:43:59.207Z,7.47
2022-12-11T15:46:27.831Z,4.82
2022-12-11T15:48:57.996Z,5.67
2022-12-11T15:51:27.957Z,3.67
2022-12-11T15:53:55.948Z,5.32
2022-12-11T15:56:23.727Z,5.95
2022-12-11T15:58:51.779Z,7.55
2022-12-11T16:01:19.673Z,4.27
2022-12-11T16:03:50.866Z,6.85
2022-12-11T16:06:19.088Z,6.80
2022-12-11T16:08:47.121Z,4.75
2022-12-11T16:11:15.564Z,8.10
2022-12-11T16:13:43.579Z,6.97
2022-12-11T16:16:11.705Z,10.50
2022-12-11T16:18:40.476Z,4.95
2022-12-11T16:21:09.219Z,6.50
2022-12-11T16:23:37.693Z,4.97
2022-12-11T16:26:10.264Z,6.00
2022-12-11T16:28:38.235Z,5.05
2022-12-11T16:31:15.116Z,4.45
2022-12-11T16:33:43.901Z,8.10
2022-12-11T16:36:20.156Z,9.07
2022-12-11T16:38:53.505Z,6.07
2022-12-11T16:41:23.636Z,5.20
2022-12-11T16:43:52.665Z,5.55
2022-12-11T16:46:22.037Z,4.93
2022-12-11T16:48:51.106Z,6.40
2022-12-11T16:51:19.246Z,6.27
2022-12-11T16:53:47.131Z,6.93
2022-12-11T16:56:15.217Z,7.20
2022-12-11T16:58:43.076Z,8.48
2022-12-11T17:01:16.446Z,9.77
2022-12-11T17:03:45.170Z,19.10
2022-12-11T17:06:17.331Z,19.70
2022-12-11T17:08:47.177Z,12.63
2022-12-11T17:11:18.041Z,8.02
2022-12-11T17:13:46.783Z,9.93
2022-12-11T17:16:18.300Z,5.97
2022-12-11T17:18:46.521Z,9.02
2022-12-11T17:21:18.045Z,8.40
2022-12-11T17:23:47.035Z,8.90
2022-12-11T17:26:15.648Z,9.38
2022-12-11T17:28:44.137Z,8.87
2022-12-11T17:31:18.234Z,11.77
2022-12-11T17:33:47.571Z,10.43
2022-12-11T17:36:21.432Z,10.27
2022-12-11T17:38:50.721Z,11.18
2022-12-11T17:41:20.919Z,10.00
2022-12-11T17:43:51.974Z,13.27
2022-12-11T17:46:21.122Z,8.73
2022-12-11T17:48:49.806Z,10.45
2022-12-11T17:51:24.304Z,6.70
2022-12-11T17:53:56.326Z,8.93
2022-12-11T17:56:25.380Z,6.32
2022-12-11T17:58:53.408Z,10.30
2022-12-11T18:01:22.067Z,10.57
2022-12-11T18:03:50.399Z,11.60
2022-12-11T18:06:18.748Z,11.20
2022-12-11T18:08:49.138Z,12.57
2022-12-11T18:11:19.371Z,9.30
2022-12-11T18:13:48.959Z,10.40
2022-12-11T18:16:22.921Z,11.07
2022-12-11T18:18:51.600Z,9.50
2022-12-11T18:21:23.192Z,8.93
2022-12-11T18:23:51.736Z,15.13
2022-12-11T18:26:20.705Z,8.32
2022-12-11T18:28:50.055Z,10.55
2022-12-11T18:31:19.189Z,17.97
2022-12-11T18:33:47.906Z,12.02
2022-12-11T18:36:17.715Z,12.48
2022-12-11T18:38:48.285Z,10.23
2022-12-11T18:41:18.107Z,11.63
2022-12-11T18:43:46.566Z,9.53
2022-12-11T18:46:17.083Z,9.93
2022-12-11T18:48:46.833Z,10.85
2022-12-11T18:51:22.944Z,11.55
2022-12-11T18:53:52.170Z,8.90
2022-12-11T18:56:22.308Z,12.13
2022-12-11T18:58:51.430Z,11.45
2022-12-11T19:01:23.228Z,10.98
2022-12-11T19:03:56.353Z,12.80
2022-12-11T19:06:30.512Z,10.40
2022-12-11T19:09:00.900Z,8.20
2022-12-11T19:11:32.292Z,10.18
2022-12-11T19:14:00.762Z,10.32
2022-12-11T19:16:34.753Z,9.88
2022-12-11T19:19:06.078Z,9.43
2022-12-11T19:21:36.231Z,6.60
2022-12-11T19:24:06.642Z,7.82
2022-12-11T19:26:35.193Z,9.07
2022-12-11T19:29:04.308Z,10.13
2022-12-11T19:31:33.392Z,9.15
2022-12-11T19:34:04.704Z,6.23
2022-12-11T19:36:34.171Z,7.85
2022-12-11T19:39:05.048Z,9.43
2022-12-11T19:41:35.584Z,9.65
2022-12-11T19:44:03.754Z,9.45
2022-12-11T19:46:32.174Z,9.23
2022-12-11T19:49:01.174Z,9.25
2022-12-11T19:51:34.299Z,8.88
2022-12-11T19:54:06.029Z,11.88
2022-12-11T19:56:35.715Z,8.20
2022-12-11T19:59:07.055Z,12.03
2022-12-11T20:01:37.770Z,5.43
2022-12-11T20:04:10.719Z,8.50
2022-12-11T20:06:43.309Z,5.45
2022-12-11T20:09:12.535Z,6.57
2022-12-11T20:11:45.114Z,10.07
2022-12-11T20:14:25.188Z,12.43
2022-12-11T20:17:12.971Z,10.80
2022-12-11T20:19:43.052Z,8.25
2022-12-11T20:22:12.020Z,12.70
2022-12-11T20:24:40.941Z,9.63
2022-12-11T20:27:10.161Z,10.05
2022-12-11T20:29:39.298Z,14.18
2022-12-11T20:32:07.985Z,6.68
2022-12-11T20:34:37.726Z,11.30
2022-12-11T20:37:06.204Z,15.63
2022-12-11T20:39:34.337Z,13.65
2022-12-11T20:42:05.450Z,13.82
2022-12-11T20:44:33.631Z,9.15
2022-12-11T20:47:01.709Z,15.13
2022-12-11T20:49:30.713Z,18.57
2022-12-11T20:52:00.384Z,11.50
2022-12-11T20:54:28.949Z,7.45
2022-12-11T20:56:57.434Z,9.52
2022-12-11T20:59:26.834Z,8.05
2022-12-11T21:01:55.833Z,11.97
2022-12-11T21:04:25.027Z,10.10
2022-12-11T21:06:58.566Z,8.18
2022-12-11T21:09:28.273Z,9.68
2022-12-11T21:11:58.828Z,10.32
2022-12-11T21:14:27.407Z,8.83
2022-12-11T21:16:55.838Z,10.18
2022-12-11T21:19:24.990Z,7.90
2022-12-11T21:21:53.820Z,7.18
2022-12-11T21:24:27.066Z,9.38
2022-12-11T21:26:57.683Z,11.93
2022-12-11T21:29:28.107Z,8.77
2022-12-11T21:31:56.683Z,9.57
2022-12-11T21:34:25.783Z,8.75
2022-12-11T21:36:57.463Z,7.65
2022-12-11T21:39:27.284Z,7.63
2022-12-11T21:41:55.545Z,8.35
2022-12-11T21:47:12.585Z,7.95
2022-12-11T21:49:40.524Z,7.63
2022-12-11T21:52:11.463Z,7.17
2022-12-11T21:54:40.289Z,7.85
2022-12-11T21:57:08.205Z,5.97
2022-12-11T21:59:36.439Z,5.72
2022-12-11T22:02:05.431Z,6.35
2022-12-11T22:04:33.550Z,5.50
2022-12-11T22:07:02.743Z,6.72
2022-12-11T22:09:30.958Z,12.27
2022-12-11T22:11:59.476Z,6.22
2022-12-11T22:14:28.363Z,3.67
2022-12-11T22:16:56.581Z,8.03
2022-12-11T22:19:29.163Z,8.00
2022-12-11T22:22:01.383Z,6.93
2022-12-11T22:24:29.342Z,9.82
2022-12-11T22:26:57.572Z,5.82
2022-12-11T22:29:25.746Z,4.70
2022-12-11T22:31:55.142Z,5.15
2022-12-11T22:34:26.304Z,6.10
2022-12-11T22:36:54.551Z,5.50
2022-12-11T22:39:22.912Z,7.22
2022-12-11T22:41:51.438Z,5.93
2022-12-11T22:44:21.669Z,4.30
2022-12-11T22:46:50.793Z,6.78
2022-12-11T22:49:20.795Z,5.90
2022-12-11T22:51:49.840Z,7.30
2022-12-11T22:54:17.824Z,5.63
2022-12-11T22:56:46.581Z,5.43
2022-12-11T22:59:14.538Z,8.32
2022-12-11T23:01:42.811Z,5.70
2022-12-11T23:04:10.907Z,6.43
2022-12-11T23:06:42.110Z,7.73
2022-12-11T23:09:11.891Z,5.85
2022-12-11T23:11:40.671Z,10.43
2022-12-11T23:14:14.082Z,7.88
2022-12-11T23:16:42.745Z,6.18
2022-12-11T23:19:12.938Z,9.33
2022-12-11T23:21:41.354Z,9.23
2022-12-11T23:24:09.585Z,5.85
2022-12-11T23:26:37.934Z,7.82
2022-12-11T23:29:06.978Z,8.70
2022-12-11T23:31:36.172Z,7.90
2022-12-11T23:34:04.039Z,6.65
2022-12-11T23:36:32.256Z,5.40
2022-12-11T23:39:00.150Z,7.88
2022-12-11T23:41:28.215Z,6.25
2022-12-11T23:43:56.524Z,6.67
2022-12-11T23:46:25.820Z,9.20
2022-12-11T23:48:54.863Z,5.68
2022-12-11T23:51:25.140Z,7.57
2022-12-11T23:53:53.903Z,4.85
2022-12-11T23:56:28.065Z,9.07
2022-12-11T23:58:57.096Z,6.75
